VLG3259 GCXO-LEZL
Flight info
| Callsign | VLG3259 |
|---|---|
| Flight time | 1h 54m |
| Altitude | 34000 |
| Route | VASTO UN858 AKUDA DCT PESAS N858 OSLEP |
| Aircraft | A321/M-SDE3FGHIRWY/LB1 |
Departure
| Time | 2026-04-28 03:17 |
|---|---|
| Airport | Tenerife Norte-Ciudad de La Laguna Airport (GCXO) |
Arrival
| Time | 2026-04-28 05:11 |
|---|---|
| Airport | Seville Airport (LEZL) |
| Time | Latitude | Longitude | Altitude | Speed | Heading |
|---|---|---|---|---|---|
| 2026-04-28 02:52 | 28.48729 | -16.34834 | 2075 ft | 0 kts | 59° |
| 2026-04-28 02:58 | 28.48728 | -16.34834 | 2075 ft | 2 kts | 59° |
| 2026-04-28 02:58 | 28.48719 | -16.34852 | 2073 ft | 3 kts | 59° |
| 2026-04-28 02:59 | 28.48710 | -16.34870 | 2076 ft | 3 kts | 59° |
| 2026-04-28 02:59 | 28.48701 | -16.34887 | 2075 ft | 3 kts | 59° |
| 2026-04-28 02:59 | 28.48692 | -16.34905 | 2075 ft | 3 kts | 59° |
| 2026-04-28 02:59 | 28.48683 | -16.34922 | 2077 ft | 2 kts | 59° |
| 2026-04-28 03:00 | 28.48675 | -16.34937 | 2080 ft | 2 kts | 59° |
| 2026-04-28 03:00 | 28.48669 | -16.34955 | 2081 ft | 3 kts | 86° |
| 2026-04-28 03:00 | 28.48670 | -16.34974 | 2082 ft | 0 kts | 108° |
| 2026-04-28 03:01 | 28.48669 | -16.34972 | 2082 ft | 0 kts | 109° |
| 2026-04-28 03:01 | 28.48668 | -16.34970 | 2082 ft | 0 kts | 116° |
| 2026-04-28 03:02 | 28.48667 | -16.34969 | 2082 ft | 1 kts | 117° |
| 2026-04-28 03:02 | 28.48663 | -16.34960 | 2083 ft | 2 kts | 121° |
| 2026-04-28 03:02 | 28.48653 | -16.34945 | 2083 ft | 3 kts | 124° |
| 2026-04-28 03:02 | 28.48639 | -16.34921 | 2083 ft | 4 kts | 122° |
| 2026-04-28 03:03 | 28.48624 | -16.34882 | 2082 ft | 7 kts | 111° |
| 2026-04-28 03:03 | 28.48604 | -16.34825 | 2080 ft | 10 kts | 112° |
| 2026-04-28 03:03 | 28.48573 | -16.34729 | 2073 ft | 16 kts | 110° |
| 2026-04-28 03:03 | 28.48528 | -16.34595 | 2069 ft | 21 kts | 110° |
| 2026-04-28 03:04 | 28.48481 | -16.34451 | 2061 ft | 18 kts | 110° |
| 2026-04-28 03:04 | 28.48430 | -16.34299 | 2055 ft | 23 kts | 111° |
| 2026-04-28 03:04 | 28.48374 | -16.34130 | 2051 ft | 6 kts | 111° |
| 2026-04-28 03:04 | 28.48361 | -16.34091 | 2050 ft | 10 kts | 112° |
| 2026-04-28 03:05 | 28.48320 | -16.33971 | 2043 ft | 15 kts | 108° |
| 2026-04-28 03:05 | 28.48295 | -16.33891 | 2041 ft | 17 kts | 111° |
| 2026-04-28 03:05 | 28.48250 | -16.33763 | 2039 ft | 19 kts | 114° |
| 2026-04-28 03:05 | 28.48185 | -16.33571 | 2038 ft | 20 kts | 109° |
| 2026-04-28 03:06 | 28.48155 | -16.33467 | 2039 ft | 21 kts | 109° |
| 2026-04-28 03:06 | 28.48092 | -16.33278 | 2032 ft | 19 kts | 110° |
| 2026-04-28 03:06 | 28.48059 | -16.33181 | 2032 ft | 21 kts | 111° |
| 2026-04-28 03:06 | 28.48016 | -16.33048 | 2031 ft | 15 kts | 110° |
| 2026-04-28 03:07 | 28.47981 | -16.32943 | 2017 ft | 7 kts | 110° |
| 2026-04-28 03:07 | 28.47960 | -16.32881 | 2017 ft | 10 kts | 111° |
| 2026-04-28 03:07 | 28.47938 | -16.32816 | 2013 ft | 0 kts | 110° |
| 2026-04-28 03:09 | 28.47937 | -16.32813 | 2013 ft | 2 kts | 110° |
| 2026-04-28 03:09 | 28.47930 | -16.32792 | 2015 ft | 4 kts | 111° |
| 2026-04-28 03:09 | 28.47924 | -16.32774 | 2032 ft | 0 kts | 111° |
| 2026-04-28 03:10 | 28.47922 | -16.32769 | 2008 ft | 2 kts | 110° |
| 2026-04-28 03:11 | 28.47916 | -16.32750 | 2010 ft | 2 kts | 111° |
| 2026-04-28 03:11 | 28.47909 | -16.32729 | 2012 ft | 4 kts | 111° |
| 2026-04-28 03:11 | 28.47898 | -16.32697 | 2012 ft | 0 kts | 110° |
| 2026-04-28 03:13 | 28.47895 | -16.32687 | 2014 ft | 4 kts | 110° |
| 2026-04-28 03:13 | 28.47877 | -16.32635 | 2012 ft | 10 kts | 111° |
| 2026-04-28 03:14 | 28.47833 | -16.32565 | 2011 ft | 9 kts | 140° |
| 2026-04-28 03:14 | 28.47778 | -16.32536 | 2014 ft | 8 kts | 179° |
| 2026-04-28 03:14 | 28.47743 | -16.32555 | 2013 ft | 2 kts | 243° |
| 2026-04-28 03:14 | 28.47742 | -16.32561 | 2015 ft | 0 kts | 256° |
| 2026-04-28 03:15 | 28.47741 | -16.32564 | 2015 ft | 1 kts | 258° |
| 2026-04-28 03:15 | 28.47745 | -16.32580 | 2014 ft | 1 kts | 288° |
| 2026-04-28 03:16 | 28.47746 | -16.32583 | 2014 ft | 3 kts | 288° |
| 2026-04-28 03:16 | 28.47820 | -16.32809 | 2019 ft | 64 kts | 290° |
| 2026-04-28 03:16 | 28.48051 | -16.33505 | 2040 ft | 123 kts | 290° |
| 2026-04-28 03:16 | 28.48418 | -16.34592 | 2119 ft | 165 kts | 292° |
| 2026-04-28 03:17 | 28.48843 | -16.35796 | 2803 ft | 166 kts | 292° |
| 2026-04-28 03:17 | 28.49765 | -16.38429 | 3573 ft | 199 kts | 294° |
| 2026-04-28 03:17 | 28.50304 | -16.39973 | 3767 ft | 221 kts | 293° |
| 2026-04-28 03:18 | 28.50910 | -16.41710 | 3881 ft | 246 kts | 294° |
| 2026-04-28 03:18 | 28.51562 | -16.43588 | 4209 ft | 263 kts | 293° |
| 2026-04-28 03:18 | 28.52234 | -16.45538 | 4877 ft | 267 kts | 293° |
| 2026-04-28 03:18 | 28.52915 | -16.47518 | 5534 ft | 271 kts | 293° |
| 2026-04-28 03:19 | 28.53594 | -16.49493 | 6220 ft | 273 kts | 293° |
| 2026-04-28 03:19 | 28.54354 | -16.51526 | 6881 ft | 275 kts | 303° |
| 2026-04-28 03:19 | 28.55598 | -16.53122 | 7486 ft | 275 kts | 326° |
| 2026-04-28 03:19 | 28.57323 | -16.54032 | 8121 ft | 276 kts | 348° |
| 2026-04-28 03:20 | 28.59242 | -16.54081 | 8752 ft | 280 kts | 11° |
| 2026-04-28 03:20 | 28.61081 | -16.53312 | 9376 ft | 285 kts | 24° |
| 2026-04-28 03:20 | 28.62697 | -16.51996 | 9960 ft | 292 kts | 48° |
| 2026-04-28 03:20 | 28.63671 | -16.49945 | 10491 ft | 301 kts | 75° |
| 2026-04-28 03:21 | 28.63732 | -16.47505 | 10676 ft | 323 kts | 103° |
| 2026-04-28 03:21 | 28.62808 | -16.45064 | 10821 ft | 343 kts | 117° |
| 2026-04-28 03:21 | 28.61622 | -16.42623 | 11007 ft | 360 kts | 119° |
| 2026-04-28 03:21 | 28.60354 | -16.40137 | 11469 ft | 366 kts | 120° |
| 2026-04-28 03:22 | 28.59057 | -16.37623 | 12021 ft | 370 kts | 120° |
| 2026-04-28 03:22 | 28.57760 | -16.35089 | 12582 ft | 373 kts | 120° |
| 2026-04-28 03:22 | 28.56458 | -16.32509 | 13158 ft | 377 kts | 119° |
| 2026-04-28 03:22 | 28.55320 | -16.29815 | 13727 ft | 380 kts | 108° |
| 2026-04-28 03:23 | 28.54741 | -16.26876 | 14236 ft | 382 kts | 92° |
| 2026-04-28 03:23 | 28.54929 | -16.23869 | 14730 ft | 383 kts | 75° |
| 2026-04-28 03:23 | 28.55924 | -16.21070 | 15245 ft | 382 kts | 56° |
| 2026-04-28 03:23 | 28.57601 | -16.18652 | 15774 ft | 383 kts | 47° |
| 2026-04-28 03:24 | 28.59352 | -16.16374 | 16302 ft | 386 kts | 46° |
| 2026-04-28 03:24 | 28.61155 | -16.14043 | 16819 ft | 389 kts | 47° |
| 2026-04-28 03:24 | 28.62951 | -16.11717 | 17322 ft | 393 kts | 47° |
| 2026-04-28 03:24 | 28.64739 | -16.09395 | 17824 ft | 396 kts | 47° |
| 2026-04-28 03:25 | 28.66559 | -16.07030 | 18325 ft | 399 kts | 47° |
| 2026-04-28 03:25 | 28.68395 | -16.04641 | 18758 ft | 402 kts | 47° |
| 2026-04-28 03:25 | 28.70241 | -16.02231 | 19188 ft | 405 kts | 47° |
| 2026-04-28 03:25 | 28.72097 | -15.99801 | 19634 ft | 408 kts | 47° |
| 2026-04-28 03:26 | 28.73950 | -15.97373 | 20072 ft | 411 kts | 46° |
| 2026-04-28 03:26 | 28.75851 | -15.94883 | 20518 ft | 414 kts | 46° |
| 2026-04-28 03:26 | 28.77753 | -15.92395 | 20955 ft | 417 kts | 46° |
| 2026-04-28 03:26 | 28.79664 | -15.89895 | 21387 ft | 420 kts | 46° |
| 2026-04-28 03:27 | 28.81593 | -15.87372 | 21803 ft | 423 kts | 46° |
| 2026-04-28 03:27 | 28.83532 | -15.84834 | 22212 ft | 426 kts | 46° |
| 2026-04-28 03:27 | 28.85483 | -15.82272 | 22612 ft | 429 kts | 46° |
| 2026-04-28 03:27 | 28.87469 | -15.79658 | 23010 ft | 432 kts | 46° |
| 2026-04-28 03:28 | 28.89412 | -15.77097 | 23390 ft | 434 kts | 46° |
| 2026-04-28 03:28 | 28.91400 | -15.74479 | 23748 ft | 437 kts | 46° |
| 2026-04-28 03:28 | 28.93396 | -15.71852 | 24064 ft | 440 kts | 45° |
| 2026-04-28 03:28 | 28.94754 | -15.70065 | 24288 ft | 441 kts | 45° |
| 2026-04-28 03:29 | 28.97430 | -15.66542 | 24708 ft | 444 kts | 45° |
| 2026-04-28 03:29 | 28.99456 | -15.63878 | 25025 ft | 446 kts | 45° |
| 2026-04-28 03:29 | 29.01496 | -15.61191 | 25320 ft | 448 kts | 45° |
| 2026-04-28 03:29 | 29.02880 | -15.59367 | 25536 ft | 450 kts | 45° |
| 2026-04-28 03:30 | 29.04928 | -15.56662 | 25843 ft | 452 kts | 45° |
| 2026-04-28 03:30 | 29.07001 | -15.53918 | 26148 ft | 454 kts | 45° |
| 2026-04-28 03:30 | 29.09150 | -15.51068 | 26458 ft | 457 kts | 45° |
| 2026-04-28 03:30 | 29.11168 | -15.48365 | 26745 ft | 460 kts | 47° |
| 2026-04-28 03:31 | 29.13065 | -15.45399 | 27025 ft | 464 kts | 51° |
| 2026-04-28 03:31 | 29.14739 | -15.42219 | 27299 ft | 471 kts | 63° |
| 2026-04-28 03:31 | 29.15941 | -15.38731 | 27569 ft | 475 kts | 66° |
| 2026-04-28 03:31 | 29.17090 | -15.35153 | 27837 ft | 478 kts | 66° |
| 2026-04-28 03:32 | 29.18231 | -15.31570 | 28111 ft | 480 kts | 67° |
| 2026-04-28 03:32 | 29.19376 | -15.27963 | 28379 ft | 482 kts | 67° |
| 2026-04-28 03:32 | 29.20574 | -15.24368 | 28625 ft | 482 kts | 60° |
| 2026-04-28 03:32 | 29.22319 | -15.21135 | 28861 ft | 476 kts | 46° |
| 2026-04-28 03:33 | 29.24492 | -15.18339 | 29114 ft | 475 kts | 43° |
| 2026-04-28 03:33 | 29.26753 | -15.15507 | 29369 ft | 477 kts | 43° |
| 2026-04-28 03:33 | 29.29008 | -15.12699 | 29644 ft | 479 kts | 43° |
| 2026-04-28 03:33 | 29.31271 | -15.09887 | 29919 ft | 481 kts | 43° |
| 2026-04-28 03:34 | 29.33549 | -15.07056 | 30174 ft | 483 kts | 42° |
| 2026-04-28 03:34 | 29.35822 | -15.04222 | 30478 ft | 482 kts | 43° |
| 2026-04-28 03:34 | 29.38092 | -15.01382 | 30804 ft | 482 kts | 43° |
| 2026-04-28 03:34 | 29.40353 | -14.98542 | 31110 ft | 481 kts | 43° |
| 2026-04-28 03:35 | 29.42610 | -14.95697 | 31420 ft | 481 kts | 43° |
| 2026-04-28 03:35 | 29.44866 | -14.92852 | 31713 ft | 481 kts | 43° |
| 2026-04-28 03:35 | 29.47115 | -14.90019 | 32016 ft | 480 kts | 43° |
| 2026-04-28 03:35 | 29.49335 | -14.87225 | 32320 ft | 480 kts | 43° |
| 2026-04-28 03:36 | 29.51588 | -14.84390 | 32607 ft | 479 kts | 43° |
| 2026-04-28 03:36 | 29.53840 | -14.81556 | 32897 ft | 479 kts | 43° |
| 2026-04-28 03:36 | 29.56010 | -14.78645 | 33175 ft | 483 kts | 52° |
| 2026-04-28 03:36 | 29.57759 | -14.75334 | 33450 ft | 486 kts | 57° |
| 2026-04-28 03:37 | 29.59414 | -14.71947 | 33715 ft | 486 kts | 57° |
| 2026-04-28 03:37 | 29.61061 | -14.68556 | 33972 ft | 486 kts | 57° |
| 2026-04-28 03:37 | 29.64354 | -14.61769 | 34055 ft | 486 kts | 57° |
| 2026-04-28 03:38 | 29.67986 | -14.55305 | 34061 ft | 473 kts | 41° |
| 2026-04-28 03:38 | 29.72572 | -14.49904 | 34059 ft | 472 kts | 41° |
| 2026-04-28 03:39 | 29.77189 | -14.44519 | 34050 ft | 472 kts | 40° |
| 2026-04-28 03:39 | 29.81795 | -14.39139 | 34058 ft | 472 kts | 41° |
| 2026-04-28 03:40 | 29.86406 | -14.33741 | 34066 ft | 472 kts | 41° |
| 2026-04-28 03:40 | 29.90978 | -14.28376 | 34063 ft | 472 kts | 41° |
| 2026-04-28 03:41 | 29.95576 | -14.22967 | 34058 ft | 472 kts | 41° |
| 2026-04-28 03:41 | 30.00173 | -14.17561 | 34072 ft | 472 kts | 41° |
| 2026-04-28 03:42 | 30.04771 | -14.12148 | 34066 ft | 472 kts | 41° |
| 2026-04-28 03:42 | 30.09360 | -14.06726 | 34068 ft | 472 kts | 41° |
| 2026-04-28 03:43 | 30.13953 | -14.01293 | 34067 ft | 472 kts | 41° |
| 2026-04-28 03:43 | 30.18535 | -13.95868 | 34069 ft | 472 kts | 41° |
| 2026-04-28 03:44 | 30.23110 | -13.90447 | 34069 ft | 472 kts | 41° |
| 2026-04-28 03:44 | 30.27665 | -13.85037 | 34065 ft | 471 kts | 41° |
| 2026-04-28 03:45 | 30.32277 | -13.79560 | 34066 ft | 471 kts | 41° |
| 2026-04-28 03:45 | 30.36855 | -13.74121 | 34061 ft | 471 kts | 41° |
| 2026-04-28 03:46 | 30.41402 | -13.68708 | 34058 ft | 471 kts | 41° |
| 2026-04-28 03:46 | 30.45966 | -13.63244 | 34047 ft | 471 kts | 41° |
| 2026-04-28 03:47 | 30.50548 | -13.57842 | 34046 ft | 468 kts | 36° |
| 2026-04-28 03:47 | 30.55777 | -13.53452 | 34050 ft | 462 kts | 28° |
| 2026-04-28 03:48 | 30.61091 | -13.49240 | 34050 ft | 462 kts | 29° |
| 2026-04-28 03:48 | 30.66390 | -13.45008 | 34050 ft | 462 kts | 29° |
| 2026-04-28 03:49 | 30.71688 | -13.40773 | 34048 ft | 462 kts | 29° |
| 2026-04-28 03:49 | 30.76988 | -13.36539 | 34047 ft | 462 kts | 28° |
| 2026-04-28 03:50 | 30.82329 | -13.32271 | 34047 ft | 462 kts | 28° |
| 2026-04-28 03:50 | 30.87674 | -13.27979 | 34041 ft | 463 kts | 29° |
| 2026-04-28 03:51 | 30.92972 | -13.23731 | 34039 ft | 463 kts | 28° |
| 2026-04-28 03:51 | 30.98292 | -13.19503 | 34041 ft | 462 kts | 28° |
| 2026-04-28 03:52 | 31.03618 | -13.15287 | 34040 ft | 462 kts | 29° |
| 2026-04-28 03:52 | 31.08978 | -13.11026 | 34041 ft | 462 kts | 29° |
| 2026-04-28 03:53 | 31.14014 | -13.07010 | 34048 ft | 462 kts | 29° |
| 2026-04-28 03:53 | 31.19514 | -13.02614 | 34038 ft | 462 kts | 30° |
| 2026-04-28 03:54 | 31.24616 | -12.98523 | 34028 ft | 461 kts | 30° |
| 2026-04-28 03:54 | 31.29048 | -12.94980 | 34036 ft | 461 kts | 30° |
| 2026-04-28 03:55 | 31.34383 | -12.90716 | 34017 ft | 461 kts | 30° |
| 2026-04-28 03:55 | 31.39669 | -12.86468 | 34019 ft | 460 kts | 31° |
| 2026-04-28 03:56 | 31.44902 | -12.82253 | 34019 ft | 460 kts | 31° |
| 2026-04-28 03:56 | 31.50185 | -12.78004 | 34021 ft | 460 kts | 31° |
| 2026-04-28 03:57 | 31.55490 | -12.73731 | 34023 ft | 459 kts | 31° |
| 2026-04-28 03:57 | 31.60757 | -12.69482 | 34019 ft | 459 kts | 31° |
| 2026-04-28 03:58 | 31.66010 | -12.65231 | 34019 ft | 458 kts | 32° |
| 2026-04-28 03:58 | 31.71263 | -12.60975 | 34020 ft | 458 kts | 32° |
| 2026-04-28 03:59 | 31.76508 | -12.56726 | 34017 ft | 458 kts | 32° |
| 2026-04-28 03:59 | 31.81748 | -12.52481 | 34016 ft | 457 kts | 32° |
| 2026-04-28 04:00 | 31.86984 | -12.48221 | 34010 ft | 457 kts | 32° |
| 2026-04-28 04:00 | 31.92205 | -12.43965 | 34008 ft | 457 kts | 32° |
| 2026-04-28 04:01 | 31.97438 | -12.39704 | 33923 ft | 456 kts | 32° |
| 2026-04-28 04:01 | 32.02657 | -12.35450 | 34002 ft | 456 kts | 32° |
| 2026-04-28 04:02 | 32.07848 | -12.31228 | 33993 ft | 456 kts | 32° |
| 2026-04-28 04:02 | 32.13063 | -12.26989 | 33991 ft | 455 kts | 32° |
| 2026-04-28 04:03 | 32.18311 | -12.22706 | 33987 ft | 455 kts | 33° |
| 2026-04-28 04:03 | 32.23487 | -12.18471 | 33992 ft | 456 kts | 33° |
| 2026-04-28 04:04 | 32.28693 | -12.14207 | 33986 ft | 456 kts | 33° |
| 2026-04-28 04:04 | 32.33901 | -12.09932 | 33986 ft | 456 kts | 33° |
| 2026-04-28 04:05 | 32.39110 | -12.05646 | 33985 ft | 456 kts | 33° |
| 2026-04-28 04:05 | 32.44321 | -12.01360 | 33983 ft | 456 kts | 33° |
| 2026-04-28 04:06 | 32.49534 | -11.97073 | 33981 ft | 456 kts | 33° |
| 2026-04-28 04:06 | 32.54750 | -11.92773 | 33980 ft | 456 kts | 33° |
| 2026-04-28 04:07 | 32.59962 | -11.88462 | 33978 ft | 457 kts | 33° |
| 2026-04-28 04:07 | 32.65180 | -11.84155 | 33979 ft | 457 kts | 33° |
| 2026-04-28 04:08 | 32.70399 | -11.79841 | 33971 ft | 457 kts | 33° |
| 2026-04-28 04:08 | 32.75619 | -11.75507 | 33971 ft | 458 kts | 33° |
| 2026-04-28 04:09 | 32.80804 | -11.71189 | 33970 ft | 458 kts | 34° |
| 2026-04-28 04:09 | 32.86025 | -11.66849 | 33967 ft | 458 kts | 34° |
| 2026-04-28 04:10 | 32.91257 | -11.62494 | 33965 ft | 459 kts | 34° |
| 2026-04-28 04:10 | 32.96487 | -11.58134 | 33962 ft | 459 kts | 34° |
| 2026-04-28 04:11 | 33.00839 | -11.54499 | 33963 ft | 460 kts | 34° |
| 2026-04-28 04:11 | 33.06964 | -11.49369 | 33962 ft | 460 kts | 34° |
| 2026-04-28 04:12 | 33.12209 | -11.44971 | 33956 ft | 461 kts | 34° |
| 2026-04-28 04:12 | 33.17450 | -11.40575 | 33961 ft | 461 kts | 34° |
| 2026-04-28 04:13 | 33.21808 | -11.36902 | 33957 ft | 462 kts | 35° |
| 2026-04-28 04:13 | 33.27936 | -11.31697 | 33959 ft | 462 kts | 35° |
| 2026-04-28 04:14 | 33.33176 | -11.27236 | 33953 ft | 462 kts | 35° |
| 2026-04-28 04:14 | 33.38405 | -11.22785 | 33957 ft | 462 kts | 35° |
| 2026-04-28 04:15 | 33.43634 | -11.18335 | 33954 ft | 463 kts | 35° |
| 2026-04-28 04:16 | 33.51516 | -11.11608 | 33955 ft | 463 kts | 35° |
| 2026-04-28 04:16 | 33.56753 | -11.07121 | 33974 ft | 462 kts | 36° |
| 2026-04-28 04:17 | 33.61977 | -11.02652 | 33980 ft | 460 kts | 35° |
| 2026-04-28 04:17 | 33.67161 | -10.98216 | 33945 ft | 453 kts | 36° |
| 2026-04-28 04:18 | 33.72269 | -10.93830 | 33954 ft | 451 kts | 36° |
| 2026-04-28 04:18 | 33.77407 | -10.89422 | 33954 ft | 451 kts | 36° |
| 2026-04-28 04:19 | 33.82497 | -10.85031 | 33951 ft | 450 kts | 36° |
| 2026-04-28 04:19 | 33.87584 | -10.80621 | 33944 ft | 450 kts | 36° |
| 2026-04-28 04:20 | 33.92673 | -10.76219 | 33950 ft | 450 kts | 36° |
| 2026-04-28 04:20 | 33.97771 | -10.71830 | 33946 ft | 450 kts | 36° |
| 2026-04-28 04:21 | 34.02887 | -10.67403 | 33946 ft | 450 kts | 36° |
| 2026-04-28 04:21 | 34.05432 | -10.65190 | 33941 ft | 450 kts | 36° |
| 2026-04-28 04:22 | 34.13040 | -10.58561 | 33940 ft | 450 kts | 36° |
| 2026-04-28 04:22 | 34.18083 | -10.54173 | 33937 ft | 449 kts | 36° |
| 2026-04-28 04:23 | 34.23189 | -10.49721 | 33936 ft | 449 kts | 36° |
| 2026-04-28 04:23 | 34.28251 | -10.45294 | 33933 ft | 449 kts | 36° |
| 2026-04-28 04:24 | 34.33312 | -10.40865 | 33929 ft | 449 kts | 36° |
| 2026-04-28 04:24 | 34.38407 | -10.36404 | 33927 ft | 449 kts | 36° |
| 2026-04-28 04:25 | 34.42659 | -10.32684 | 33931 ft | 449 kts | 36° |
| 2026-04-28 04:25 | 34.47688 | -10.28276 | 33923 ft | 449 kts | 36° |
| 2026-04-28 04:26 | 34.52775 | -10.23804 | 33929 ft | 449 kts | 36° |
| 2026-04-28 04:26 | 34.57830 | -10.19345 | 33921 ft | 449 kts | 36° |
| 2026-04-28 04:27 | 34.62880 | -10.14886 | 33919 ft | 449 kts | 36° |
| 2026-04-28 04:27 | 34.67938 | -10.10427 | 33924 ft | 446 kts | 36° |
| 2026-04-28 04:28 | 34.72915 | -10.06061 | 33918 ft | 438 kts | 36° |
| 2026-04-28 04:28 | 34.77851 | -10.01735 | 33921 ft | 437 kts | 36° |
| 2026-04-28 04:29 | 34.82777 | -9.97386 | 33914 ft | 437 kts | 36° |
| 2026-04-28 04:29 | 34.87703 | -9.93021 | 33914 ft | 438 kts | 36° |
| 2026-04-28 04:30 | 34.92631 | -9.88657 | 33916 ft | 438 kts | 36° |
| 2026-04-28 04:30 | 34.97563 | -9.84290 | 33912 ft | 438 kts | 36° |
| 2026-04-28 04:31 | 35.02480 | -9.79917 | 33911 ft | 438 kts | 37° |
| 2026-04-28 04:31 | 35.07403 | -9.75540 | 33918 ft | 437 kts | 37° |
| 2026-04-28 04:32 | 35.12311 | -9.71173 | 33930 ft | 435 kts | 37° |
| 2026-04-28 04:32 | 35.17197 | -9.66813 | 33933 ft | 434 kts | 37° |
| 2026-04-28 04:33 | 35.22067 | -9.62474 | 33927 ft | 433 kts | 37° |
| 2026-04-28 04:33 | 35.26929 | -9.58125 | 33923 ft | 432 kts | 37° |
| 2026-04-28 04:34 | 35.31781 | -9.53781 | 33928 ft | 431 kts | 37° |
| 2026-04-28 04:34 | 35.36619 | -9.49442 | 33915 ft | 431 kts | 37° |
| 2026-04-28 04:35 | 35.41458 | -9.45106 | 33911 ft | 431 kts | 37° |
| 2026-04-28 04:35 | 35.46291 | -9.40750 | 33904 ft | 431 kts | 37° |
| 2026-04-28 04:36 | 35.51120 | -9.36380 | 33876 ft | 432 kts | 37° |
| 2026-04-28 04:36 | 35.56001 | -9.31982 | 33874 ft | 433 kts | 37° |
| 2026-04-28 04:37 | 35.60844 | -9.27613 | 33878 ft | 434 kts | 37° |
| 2026-04-28 04:37 | 35.65752 | -9.23178 | 33887 ft | 435 kts | 37° |
| 2026-04-28 04:38 | 35.70629 | -9.18757 | 33893 ft | 435 kts | 38° |
| 2026-04-28 04:38 | 35.75498 | -9.14321 | 33884 ft | 435 kts | 38° |
| 2026-04-28 04:39 | 35.80404 | -9.09852 | 33896 ft | 435 kts | 38° |
| 2026-04-28 04:39 | 35.85274 | -9.05413 | 33892 ft | 435 kts | 38° |
| 2026-04-28 04:40 | 35.90146 | -9.00967 | 33894 ft | 435 kts | 38° |
| 2026-04-28 04:40 | 35.92575 | -8.98745 | 34021 ft | 438 kts | 37° |
| 2026-04-28 04:40 | 35.95039 | -8.96487 | 33889 ft | 439 kts | 38° |
| 2026-04-28 04:41 | 35.99366 | -8.91160 | 33878 ft | 439 kts | 51° |
| 2026-04-28 04:41 | 36.03378 | -8.85389 | 33896 ft | 453 kts | 50° |
| 2026-04-28 04:42 | 36.07549 | -8.79396 | 33893 ft | 464 kts | 50° |
| 2026-04-28 04:42 | 36.11773 | -8.73327 | 33892 ft | 466 kts | 50° |
| 2026-04-28 04:43 | 36.16010 | -8.67233 | 33893 ft | 467 kts | 50° |
| 2026-04-28 04:43 | 36.20247 | -8.61117 | 33894 ft | 467 kts | 50° |
| 2026-04-28 04:44 | 36.24475 | -8.54993 | 33896 ft | 468 kts | 51° |
| 2026-04-28 04:44 | 36.28703 | -8.48875 | 33900 ft | 468 kts | 50° |
| 2026-04-28 04:45 | 36.32946 | -8.42732 | 33898 ft | 468 kts | 51° |
| 2026-04-28 04:45 | 36.37173 | -8.36568 | 33899 ft | 469 kts | 51° |
| 2026-04-28 04:46 | 36.41402 | -8.30397 | 33897 ft | 469 kts | 51° |
| 2026-04-28 04:46 | 36.45607 | -8.24258 | 33534 ft | 461 kts | 50° |
| 2026-04-28 04:46 | 36.47672 | -8.21243 | 33259 ft | 456 kts | 50° |
| 2026-04-28 04:47 | 36.49719 | -8.18258 | 32983 ft | 453 kts | 50° |
| 2026-04-28 04:47 | 36.51752 | -8.15284 | 32728 ft | 450 kts | 50° |
| 2026-04-28 04:47 | 36.53767 | -8.12327 | 32466 ft | 447 kts | 50° |
| 2026-04-28 04:47 | 36.55765 | -8.09388 | 32206 ft | 444 kts | 50° |
| 2026-04-28 04:48 | 36.57757 | -8.06461 | 31939 ft | 442 kts | 50° |
| 2026-04-28 04:48 | 36.59766 | -8.03511 | 31683 ft | 439 kts | 50° |
| 2026-04-28 04:48 | 36.61738 | -8.00617 | 31429 ft | 437 kts | 50° |
| 2026-04-28 04:48 | 36.63696 | -7.97739 | 31179 ft | 434 kts | 50° |
| 2026-04-28 04:49 | 36.65640 | -7.94880 | 30931 ft | 431 kts | 50° |
| 2026-04-28 04:49 | 36.67597 | -7.91997 | 30681 ft | 428 kts | 50° |
| 2026-04-28 04:49 | 36.69504 | -7.89181 | 30261 ft | 425 kts | 51° |
| 2026-04-28 04:49 | 36.71407 | -7.86365 | 29754 ft | 423 kts | 50° |
| 2026-04-28 04:50 | 36.73297 | -7.83565 | 29279 ft | 419 kts | 51° |
| 2026-04-28 04:50 | 36.75166 | -7.80797 | 28834 ft | 415 kts | 51° |
| 2026-04-28 04:50 | 36.77019 | -7.78053 | 28378 ft | 412 kts | 50° |
| 2026-04-28 04:50 | 36.78858 | -7.75328 | 27929 ft | 409 kts | 51° |
| 2026-04-28 04:51 | 36.80676 | -7.72628 | 27511 ft | 406 kts | 51° |
| 2026-04-28 04:51 | 36.82489 | -7.69932 | 27093 ft | 403 kts | 51° |
| 2026-04-28 04:51 | 36.84289 | -7.67258 | 26677 ft | 401 kts | 51° |
| 2026-04-28 04:51 | 36.86080 | -7.64594 | 26270 ft | 399 kts | 51° |
| 2026-04-28 04:52 | 36.87860 | -7.61946 | 25860 ft | 397 kts | 51° |
| 2026-04-28 04:52 | 36.89634 | -7.59308 | 25437 ft | 395 kts | 51° |
| 2026-04-28 04:52 | 36.91398 | -7.56681 | 25027 ft | 394 kts | 51° |
| 2026-04-28 04:52 | 36.92559 | -7.54949 | 24752 ft | 393 kts | 51° |
| 2026-04-28 04:53 | 36.94312 | -7.52330 | 24338 ft | 391 kts | 51° |
| 2026-04-28 04:53 | 36.96621 | -7.48877 | 23768 ft | 390 kts | 51° |
| 2026-04-28 04:53 | 36.97807 | -7.47104 | 23466 ft | 389 kts | 51° |
| 2026-04-28 04:53 | 36.99553 | -7.44492 | 22984 ft | 388 kts | 51° |
| 2026-04-28 04:54 | 37.01265 | -7.41930 | 22542 ft | 385 kts | 51° |
| 2026-04-28 04:54 | 37.02989 | -7.39351 | 22097 ft | 382 kts | 51° |
| 2026-04-28 04:54 | 37.04691 | -7.36807 | 21666 ft | 379 kts | 50° |
| 2026-04-28 04:54 | 37.06383 | -7.34293 | 21230 ft | 375 kts | 50° |
| 2026-04-28 04:55 | 37.08045 | -7.31828 | 20812 ft | 366 kts | 50° |
| 2026-04-28 04:55 | 37.09687 | -7.29394 | 20391 ft | 364 kts | 50° |
| 2026-04-28 04:55 | 37.11312 | -7.26982 | 19979 ft | 361 kts | 50° |
| 2026-04-28 04:55 | 37.12930 | -7.24576 | 19550 ft | 359 kts | 50° |
| 2026-04-28 04:56 | 37.14538 | -7.22183 | 19134 ft | 358 kts | 50° |
| 2026-04-28 04:56 | 37.15972 | -7.19656 | 18730 ft | 354 kts | 62° |
| 2026-04-28 04:56 | 37.16958 | -7.16837 | 18313 ft | 351 kts | 74° |
| 2026-04-28 04:56 | 37.17549 | -7.13881 | 17866 ft | 349 kts | 78° |
| 2026-04-28 04:57 | 37.18102 | -7.10931 | 17451 ft | 346 kts | 78° |
| 2026-04-28 04:57 | 37.18655 | -7.08014 | 17052 ft | 343 kts | 78° |
| 2026-04-28 04:57 | 37.19207 | -7.05110 | 16657 ft | 340 kts | 78° |
| 2026-04-28 04:57 | 37.19754 | -7.02227 | 16254 ft | 338 kts | 78° |
| 2026-04-28 04:58 | 37.20295 | -6.99371 | 15861 ft | 336 kts | 78° |
| 2026-04-28 04:58 | 37.20833 | -6.96527 | 15465 ft | 334 kts | 78° |
| 2026-04-28 04:58 | 37.21365 | -6.93692 | 15077 ft | 333 kts | 78° |
| 2026-04-28 04:58 | 37.21893 | -6.90866 | 14685 ft | 332 kts | 78° |
| 2026-04-28 04:59 | 37.22420 | -6.88051 | 14298 ft | 331 kts | 78° |
| 2026-04-28 04:59 | 37.22943 | -6.85248 | 13912 ft | 330 kts | 78° |
| 2026-04-28 04:59 | 37.23462 | -6.82455 | 13505 ft | 329 kts | 78° |
| 2026-04-28 04:59 | 37.23990 | -6.79620 | 13112 ft | 328 kts | 78° |
| 2026-04-28 05:00 | 37.24509 | -6.76835 | 12716 ft | 325 kts | 78° |
| 2026-04-28 05:00 | 37.25022 | -6.74082 | 12338 ft | 323 kts | 78° |
| 2026-04-28 05:00 | 37.25534 | -6.71341 | 11964 ft | 322 kts | 78° |
| 2026-04-28 05:00 | 37.26043 | -6.68609 | 11566 ft | 320 kts | 78° |
| 2026-04-28 05:01 | 37.26545 | -6.65901 | 11207 ft | 318 kts | 78° |
| 2026-04-28 05:01 | 37.27036 | -6.63234 | 10844 ft | 317 kts | 78° |
| 2026-04-28 05:01 | 37.27537 | -6.60509 | 10449 ft | 315 kts | 78° |
| 2026-04-28 05:01 | 37.28039 | -6.57793 | 10079 ft | 314 kts | 77° |
| 2026-04-28 05:02 | 37.28526 | -6.55151 | 9879 ft | 306 kts | 77° |
| 2026-04-28 05:02 | 37.29001 | -6.52565 | 9566 ft | 303 kts | 78° |
| 2026-04-28 05:02 | 37.29474 | -6.49992 | 9218 ft | 300 kts | 78° |
| 2026-04-28 05:02 | 37.29940 | -6.47440 | 8796 ft | 300 kts | 78° |
| 2026-04-28 05:03 | 37.30426 | -6.44780 | 8449 ft | 297 kts | 78° |
| 2026-04-28 05:03 | 37.30891 | -6.42245 | 7970 ft | 293 kts | 79° |
| 2026-04-28 05:03 | 37.31349 | -6.39745 | 7483 ft | 290 kts | 79° |
| 2026-04-28 05:03 | 37.31802 | -6.37265 | 7145 ft | 288 kts | 79° |
| 2026-04-28 05:04 | 37.32251 | -6.34798 | 6733 ft | 289 kts | 80° |
| 2026-04-28 05:04 | 37.32695 | -6.32352 | 6479 ft | 285 kts | 80° |
| 2026-04-28 05:04 | 37.33134 | -6.29942 | 6065 ft | 282 kts | 80° |
| 2026-04-28 05:04 | 37.33569 | -6.27548 | 5555 ft | 279 kts | 80° |
| 2026-04-28 05:05 | 37.33998 | -6.25189 | 5084 ft | 275 kts | 79° |
| 2026-04-28 05:05 | 37.34430 | -6.22819 | 4616 ft | 275 kts | 79° |
| 2026-04-28 05:05 | 37.34864 | -6.20487 | 4251 ft | 274 kts | 75° |
| 2026-04-28 05:05 | 37.35670 | -6.18281 | 3896 ft | 274 kts | 57° |
| 2026-04-28 05:06 | 37.36955 | -6.16516 | 3511 ft | 272 kts | 39° |
| 2026-04-28 05:06 | 37.38465 | -6.15009 | 3085 ft | 266 kts | 38° |
| 2026-04-28 05:06 | 37.39861 | -6.13627 | 2992 ft | 248 kts | 38° |
| 2026-04-28 05:06 | 37.40998 | -6.12120 | 2914 ft | 233 kts | 57° |
| 2026-04-28 05:07 | 37.41605 | -6.10296 | 2810 ft | 221 kts | 78° |
| 2026-04-28 05:07 | 37.41708 | -6.08465 | 2713 ft | 201 kts | 89° |
| 2026-04-28 05:07 | 37.41717 | -6.06759 | 2479 ft | 191 kts | 89° |
| 2026-04-28 05:07 | 37.41723 | -6.05636 | 2319 ft | 186 kts | 89° |
| 2026-04-28 05:08 | 37.41731 | -6.04023 | 2090 ft | 172 kts | 89° |
| 2026-04-28 05:08 | 37.41738 | -6.02541 | 1856 ft | 163 kts | 89° |
| 2026-04-28 05:08 | 37.41745 | -6.01131 | 1652 ft | 159 kts | 89° |
| 2026-04-28 05:08 | 37.41751 | -5.99749 | 1435 ft | 157 kts | 89° |
| 2026-04-28 05:09 | 37.41758 | -5.98360 | 1224 ft | 156 kts | 89° |
| 2026-04-28 05:09 | 37.41764 | -5.96999 | 1015 ft | 156 kts | 89° |
| 2026-04-28 05:09 | 37.41769 | -5.95626 | 832 ft | 154 kts | 89° |
| 2026-04-28 05:09 | 37.41775 | -5.94278 | 620 ft | 153 kts | 89° |
| 2026-04-28 05:10 | 37.41780 | -5.92950 | 409 ft | 152 kts | 89° |
| 2026-04-28 05:10 | 37.41787 | -5.91620 | 215 ft | 151 kts | 89° |
| 2026-04-28 05:10 | 37.41793 | -5.90257 | 98 ft | 134 kts | 90° |
| 2026-04-28 05:10 | 37.41795 | -5.89275 | 100 ft | 82 kts | 90° |
| 2026-04-28 05:11 | 37.41797 | -5.88842 | 104 ft | 11 kts | 89° |
| 2026-04-28 05:11 | 37.41807 | -5.88792 | 104 ft | 6 kts | 44° |
| 2026-04-28 05:11 | 37.41852 | -5.88777 | 103 ft | 8 kts | 13° |
| 2026-04-28 05:11 | 37.41913 | -5.88760 | 103 ft | 10 kts | 12° |
| 2026-04-28 05:12 | 37.41968 | -5.88754 | 103 ft | 6 kts | 346° |
| 2026-04-28 05:12 | 37.41984 | -5.88806 | 103 ft | 8 kts | 273° |
| 2026-04-28 05:12 | 37.41984 | -5.88879 | 102 ft | 10 kts | 269° |
| 2026-04-28 05:12 | 37.41983 | -5.88971 | 101 ft | 11 kts | 271° |
| 2026-04-28 05:13 | 37.41984 | -5.89079 | 101 ft | 13 kts | 269° |
| 2026-04-28 05:13 | 37.41983 | -5.89201 | 100 ft | 15 kts | 270° |
| 2026-04-28 05:13 | 37.41983 | -5.89325 | 99 ft | 11 kts | 270° |
| 2026-04-28 05:13 | 37.42026 | -5.89412 | 101 ft | 13 kts | 314° |
| 2026-04-28 05:14 | 37.42089 | -5.89493 | 98 ft | 12 kts | 314° |
| 2026-04-28 05:14 | 37.42146 | -5.89566 | 96 ft | 11 kts | 314° |
| 2026-04-28 05:14 | 37.42199 | -5.89636 | 95 ft | 11 kts | 314° |
| 2026-04-28 05:14 | 37.42248 | -5.89699 | 94 ft | 9 kts | 314° |
| 2026-04-28 05:15 | 37.42261 | -5.89755 | 94 ft | 6 kts | 246° |
| 2026-04-28 05:15 | 37.42244 | -5.89786 | 96 ft | 3 kts | 227° |
| 2026-04-28 05:15 | 37.42234 | -5.89800 | 94 ft | 2 kts | 232° |
| 2026-04-28 05:15 | 37.42237 | -5.89825 | 94 ft | 4 kts | 301° |
| 2026-04-28 05:16 | 37.42252 | -5.89849 | 95 ft | 3 kts | 309° |
| 2026-04-28 05:16 | 37.42264 | -5.89865 | 94 ft | 5 kts | 314° |
| 2026-04-28 05:16 | 37.42277 | -5.89882 | 95 ft | 0 kts | 314° |